Time;durP1;ratioP1;P1;durP2;ratioP2;P2;SDS_P1;SDS_P2;PMS_P1;PMS_P2;Temp;Humidity;BMP_temperature;BMP_pressure;BME280_temperature;BME280_humidity;BME280_pressure;Samples;Min_cycle;Max_cycle;Signal;HPM_P1;HPM_P2
2022/12/17 13:06:47;;;;;;;65.70;23.35;;;;;;;0.47;62.79;98869.66;4260360;33;20123;-89
2022/12/17 13:09:15;;;;;;;56.90;21.25;;;;;;;0.49;62.66;98879.13;4258011;33;20117;-93
2022/12/17 13:11:44;;;;;;;;;;;;;;;0.84;61.32;98888.16;4257305;33;20498;-87
2022/12/17 13:14:19;;;;;;;60.63;21.05;;;;;;;0.81;61.55;98895.13;4258471;33;20000;-90
2022/12/17 13:16:48;;;;;;;54.45;21.48;;;;;;;1.22;60.27;98917.91;4245894;33;20121;-92
2022/12/17 13:19:30;;;;;;;56.88;22.55;;;;;;;0.81;61.30;98916.72;4258673;33;20109;-88
2022/12/17 13:21:56;;;;;;;59.65;22.15;;;;;;;0.73;62.01;98919.41;4263889;33;20521;-88
2022/12/17 13:24:24;;;;;;;59.22;22.52;;;;;;;0.86;61.71;98914.94;4317021;33;20186;-87
2022/12/17 13:26:50;;;;;;;54.90;20.65;;;;;;;1.55;59.79;98913.91;4304019;33;20108;-88
2022/12/17 13:29:20;;;;;;;57.60;24.05;;;;;;;1.45;58.73;98904.56;4305061;33;20127;-88
2022/12/17 13:31:59;;;;;;;56.03;20.88;;;;;;;1.09;60.21;98905.97;4317651;33;20155;-90
2022/12/17 13:34:43;;;;;;;;;;;;;;;0.74;60.92;98912.50;4317621;33;20099;-86
2022/12/17 13:37:23;;;;;;;54.40;20.77;;;;;;;0.72;60.79;98919.44;4316692;33;19995;-92
2022/12/17 13:39:59;;;;;;;53.65;20.02;;;;;;;0.03;62.79;98921.06;4318068;33;20122;-88
2022/12/17 13:42:30;;;;;;;59.88;21.83;;;;;;;0.35;62.47;98941.47;4315359;33;20196;-83
2022/12/17 13:44:56;;;;;;;60.97;23.50;;;;;;;0.58;61.44;98959.38;4303942;33;20511;-82
2022/12/17 13:47:31;;;;;;;60.72;21.33;;;;;;;0.19;63.56;98968.41;4308662;33;20104;-82
2022/12/17 13:50:00;;;;;;;58.75;22.87;;;;;;;0.75;61.34;98984.22;4304314;33;20479;-83
2022/12/17 13:52:27;;;;;;;50.20;20.33;;;;;;;0.61;61.53;98986.97;4302451;33;20574;-82
2022/12/17 13:54:52;;;;;;;59.50;22.55;;;;;;;0.71;60.75;98948.84;4318080;33;20103;-81
2022/12/17 13:57:23;;;;;;;53.72;20.90;;;;;;;0.53;61.85;98981.88;4328354;33;20448;-89
2022/12/17 13:59:50;;;;;;;54.17;22.77;;;;;;;0.34;62.25;98996.75;4330396;33;20107;-87
2022/12/17 14:02:42;;;;;;;64.95;22.58;;;;;;;0.25;62.66;98991.69;4331218;33;20142;-84
2022/12/17 14:05:32;;;;;;;59.28;20.95;;;;;;;1.06;60.32;99004.59;4308839;33;20174;-92
2022/12/17 14:08:00;;;;;;;57.45;20.70;;;;;;;0.91;60.62;99003.06;4306735;33;20148;-87
2022/12/17 14:10:26;;;;;;;60.65;22.23;;;;;;;0.67;60.81;98999.00;4306389;33;20108;-87
2022/12/17 14:13:00;;;;;;;54.85;21.37;;;;;;;0.82;60.76;98995.41;4306253;33;20111;-87
2022/12/17 14:15:27;;;;;;;55.90;21.20;;;;;;;0.48;61.78;99003.53;4306107;33;20163;-86
2022/12/17 14:17:53;;;;;;;63.47;22.40;;;;;;;0.75;60.82;99018.81;4306181;33;20499;-86
2022/12/17 14:20:20;;;;;;;56.05;22.30;;;;;;;0.32;62.30;99021.81;4304983;33;20225;-86
2022/12/17 14:22:47;;;;;;;48.97;20.48;;;;;;;0.91;60.88;99029.00;4318812;33;20530;-86
2022/12/17 14:25:18;;;;;;;63.50;22.02;;;;;;;1.34;59.52;99031.91;4306478;33;20087;-86
2022/12/17 14:27:59;;;;;;;56.45;20.05;;;;;;;0.99;59.73;99042.75;4319489;33;20076;-87
2022/12/17 14:30:38;;;;;;;55.88;21.98;;;;;;;0.90;60.92;99037.66;4320701;33;20160;-87
2022/12/17 14:33:24;;;;;;;63.55;20.88;;;;;;;0.10;62.11;99054.84;4307937;33;20482;-86
2022/12/17 14:35:51;;;;;;;57.58;20.65;;;;;;;0.41;62.23;99053.72;4321422;33;20095;-87
2022/12/17 14:38:17;;;;;;;53.80;20.33;;;;;;;0.65;61.25;99060.41;4321229;33;20624;-86
2022/12/17 14:40:43;;;;;;;55.17;20.05;;;;;;;0.68;61.14;99055.19;4307991;33;20130;-87
2022/12/17 14:43:12;;;;;;;54.75;19.70;;;;;;;0.08;62.75;99077.31;4307803;33;20440;-86
2022/12/17 14:46:19;;;;;;;56.37;19.70;;;;;;;-0.02;63.42;99068.75;4307879;33;20092;-86
2022/12/17 14:48:59;;;;;;;49.13;19.45;;;;;;;0.24;62.27;99075.47;4321374;33;20511;-86
2022/12/17 14:51:39;;;;;;;50.75;19.25;;;;;;;0.17;62.60;99107.47;4320963;33;20119;-86
2022/12/17 14:54:24;;;;;;;53.53;20.42;;;;;;;-0.23;64.31;99100.84;4321184;33;20175;-86
2022/12/17 14:56:51;;;;;;;56.83;19.37;;;;;;;-0.27;64.33;99095.66;4321041;33;20084;-86
2022/12/17 14:59:32;;;;;;;47.30;18.42;;;;;;;-0.12;64.02;99118.03;4319901;33;20163;-86
2022/12/17 15:02:16;;;;;;;54.05;19.77;;;;;;;0.16;62.98;99104.00;4321087;33;20084;-86
2022/12/17 15:04:41;;;;;;;48.33;19.73;;;;;;;-0.02;63.38;99124.84;4307881;33;20095;-86
2022/12/17 15:07:13;;;;;;;50.60;19.20;;;;;;;0.05;62.76;99133.47;4320970;33;20108;-86
2022/12/17 15:09:40;;;;;;;52.25;18.15;;;;;;;-0.16;63.88;99139.63;4307750;33;20084;-86
2022/12/17 15:12:06;;;;;;;51.22;18.98;;;;;;;0.30;62.44;99134.16;4307731;33;20108;-86
2022/12/17 15:14:31;;;;;;;53.40;19.30;;;;;;;0.47;61.81;99131.44;4321051;33;20164;-86
2022/12/17 15:16:57;;;;;;;56.67;18.73;;;;;;;0.66;60.78;99129.53;4321093;33;20414;-86
2022/12/17 15:19:23;;;;;;;50.33;19.15;;;;;;;0.28;62.33;99139.34;4320938;33;20088;-86
2022/12/17 15:21:49;;;;;;;46.37;17.35;;;;;;;0.44;61.51;99153.03;4320801;33;20497;-86
2022/12/17 15:24:17;;;;;;;47.35;17.50;;;;;;;0.71;60.67;99151.94;4320898;33;20095;-86
2022/12/17 15:26:43;;;;;;;48.22;18.20;;;;;;;0.17;61.98;99169.63;4307649;33;20165;-86
2022/12/17 15:29:08;;;;;;;46.85;17.37;;;;;;;0.67;60.96;99163.22;4319662;33;20441;-86
2022/12/17 15:31:34;;;;;;;50.42;17.73;;;;;;;0.05;62.12;99183.53;4320823;33;20120;-86
2022/12/17 15:33:59;;;;;;;47.28;18.95;;;;;;;0.33;61.63;99178.19;4320691;33;20091;-86
2022/12/17 15:36:24;;;;;;;50.53;17.23;;;;;;;0.52;61.57;99191.84;4320676;33;20091;-86
2022/12/17 15:38:50;;;;;;;47.22;16.67;;;;;;;0.87;60.65;99183.81;4307653;33;20080;-86
2022/12/17 15:44:00;;;;;;;45.50;15.88;;;;;;;0.94;59.97;99200.16;4321105;33;20535;-86
2022/12/17 15:46:25;;;;;;;39.65;15.50;;;;;;;0.82;59.46;99200.28;4307639;33;20084;-85
2022/12/17 15:48:50;;;;;;;44.38;16.00;;;;;;;0.76;60.14;99198.59;4320711;33;20127;-86
2022/12/17 15:51:16;;;;;;;44.38;15.63;;;;;;;1.18;59.18;99193.87;4320520;33;20088;-86
2022/12/17 15:53:42;;;;;;;45.67;15.88;;;;;;;0.85;60.20;99200.22;4320588;33;20438;-86
2022/12/17 15:56:33;;;;;;;45.15;15.35;;;;;;;0.79;60.32;99201.13;4320532;33;20429;-85
2022/12/17 15:58:59;;;;;;;46.35;16.20;;;;;;;1.00;59.55;99201.84;4320668;33;20073;-85
2022/12/17 16:01:24;;;;;;;41.33;15.38;;;;;;;0.60;60.73;99203.03;4320583;33;20440;-85
2022/12/17 16:03:53;;;;;;;44.17;15.93;;;;;;;0.65;60.62;99213.38;4307362;33;20126;-85
2022/12/17 16:06:18;;;;;;;40.92;14.85;;;;;;;0.42;60.79;99205.75;4320650;33;20486;-85
2022/12/17 16:08:44;;;;;;;40.50;15.02;;;;;;;0.88;59.83;99208.00;4307397;33;20124;-85
2022/12/17 16:11:11;;;;;;;39.85;14.38;;;;;;;0.51;60.79;99218.66;4320565;33;20524;-85
2022/12/17 16:13:37;;;;;;;42.28;15.10;;;;;;;0.32;61.52;99223.97;4307473;33;20448;-85
2022/12/17 16:16:04;;;;;;;36.33;13.65;;;;;;;0.22;61.74;99229.22;4320502;33;20110;-85
2022/12/17 16:18:30;;;;;;;40.45;13.55;;;;;;;-0.32;62.96;99225.13;4320624;33;20076;-85
2022/12/17 16:21:01;;;;;;;38.50;13.98;;;;;;;-0.43;64.29;99229.47;4307209;33;20143;-85
2022/12/17 16:23:26;;;;;;;38.45;14.30;;;;;;;-0.15;62.95;99234.59;4307193;33;20175;-85
2022/12/17 16:25:57;;;;;;;36.85;13.23;;;;;;;-0.08;62.69;99242.31;4306996;33;20382;-85
2022/12/17 16:28:22;;;;;;;38.50;13.18;;;;;;;-0.47;64.12;99238.13;4320487;33;20136;-85
2022/12/17 16:31:01;;;;;;;41.08;16.08;;;;;;;-0.23;63.21;99255.31;4320405;33;20378;-85
2022/12/17 16:33:26;;;;;;;43.45;14.27;;;;;;;-0.08;63.25;99257.84;4307137;33;20131;-85
2022/12/17 16:35:52;;;;;;;36.50;13.90;;;;;;;-0.44;63.86;99251.94;4320527;33;20084;-85
2022/12/17 16:38:18;;;;;;;39.85;15.15;;;;;;;-0.80;65.51;99265.78;4320720;33;20080;-85
2022/12/17 16:40:43;;;;;;;45.20;15.25;;;;;;;-0.68;65.44;99267.50;4306965;33;20162;-85
2022/12/17 16:43:09;;;;;;;41.35;14.20;;;;;;;-0.76;65.48;99264.91;4320526;33;20433;-85
2022/12/17 16:45:35;;;;;;;42.35;14.07;;;;;;;-0.49;64.85;99274.34;4320404;33;20218;-85
2022/12/17 16:48:00;;;;;;;41.37;16.27;;;;;;;-0.47;64.66;99279.53;4320359;33;20322;-84
2022/12/17 16:50:26;;;;;;;41.00;13.85;;;;;;;-0.86;65.56;99274.41;4320337;33;20158;-84
2022/12/17 16:52:52;;;;;;;36.17;13.57;;;;;;;-0.29;64.18;99284.69;4319586;33;20096;-84
2022/12/17 16:55:17;;;;;;;40.05;14.30;;;;;;;-0.30;64.02;99305.38;4320424;33;20437;-84
2022/12/17 16:57:46;;;;;;;40.63;14.15;;;;;;;-0.72;65.78;99289.91;4306886;33;20088;-84
2022/12/17 17:00:12;;;;;;;38.47;13.90;;;;;;;-0.58;65.81;99307.16;4307008;33;20115;-84
2022/12/17 17:02:40;;;;;;;43.63;14.90;;;;;;;-0.34;65.21;99319.22;4320330;33;20126;-84
2022/12/17 17:05:06;;;;;;;38.65;14.27;;;;;;;-0.37;65.31;99304.53;4320310;33;20126;-84
2022/12/17 17:07:31;;;;;;;37.47;13.27;;;;;;;-0.70;66.83;99301.13;4320372;33;20354;-84
2022/12/17 17:09:56;;;;;;;42.13;13.90;;;;;;;-0.76;67.04;99314.06;4319988;33;20092;-84
2022/12/17 17:12:22;;;;;;;37.45;12.98;;;;;;;-0.71;66.95;99327.88;4306693;33;20416;-85
2022/12/17 17:14:50;;;;;;;41.90;14.35;;;;;;;-0.67;67.29;99324.41;4306796;33;20092;-84
2022/12/17 17:17:16;;;;;;;39.58;14.38;;;;;;;-0.65;67.35;99316.66;4320213;33;20539;-85
2022/12/17 17:19:41;;;;;;;44.97;14.13;;;;;;;-0.72;67.90;99320.97;4320334;33;20107;-85
2022/12/17 17:22:06;;;;;;;44.22;15.43;;;;;;;-0.42;67.00;99327.00;4320491;33;20376;-85
2022/12/17 17:24:32;;;;;;;43.97;15.43;;;;;;;-0.40;66.88;99327.84;4320174;33;20100;-86
2022/12/17 17:26:57;;;;;;;49.25;16.05;;;;;;;-0.50;67.17;99321.81;4320382;33;20130;-90
2022/12/17 17:29:23;;;;;;;41.47;14.98;;;;;;;-0.65;67.21;99338.22;4320301;33;20152;-90
2022/12/17 17:31:48;;;;;;;38.03;14.43;;;;;;;-0.35;66.80;99343.34;4306895;33;20092;-91
2022/12/17 17:34:14;;;;;;;43.90;14.07;;;;;;;-0.09;65.74;99353.69;4309442;33;20161;-86
2022/12/17 17:36:40;;;;;;;47.20;15.75;;;;;;;-0.28;66.42;99358.03;4319702;33;20118;-86
2022/12/17 17:39:06;;;;;;;44.30;14.80;;;;;;;-0.14;65.40;99365.75;4319731;33;20129;-86
2022/12/17 17:41:33;;;;;;;43.92;15.57;;;;;;;-0.09;65.07;99364.88;4333780;33;20100;-85
2022/12/17 17:44:01;;;;;;;43.90;15.52;;;;;;;-0.47;66.21;99396.84;4332416;33;20219;-86
2022/12/17 17:46:28;;;;;;;44.17;14.82;;;;;;;-0.32;66.22;99377.03;4333311;33;20099;-86
2022/12/17 17:48:58;;;;;;;47.85;15.95;;;;;;;0.01;65.06;99385.59;4321166;33;20108;-86
2022/12/17 17:51:26;;;;;;;42.83;15.30;;;;;;;-0.29;65.73;99389.94;4321404;33;20096;-87
2022/12/17 17:53:53;;;;;;;39.30;15.27;;;;;;;0.08;64.79;99388.16;4334800;33;20586;-86
2022/12/17 17:56:20;;;;;;;41.33;15.88;;;;;;;-0.34;65.69;99389.97;4334491;33;20076;-87
2022/12/17 17:58:47;;;;;;;39.60;14.07;;;;;;;-0.57;66.60;99404.63;4321045;33;20130;-85
2022/12/17 18:01:30;;;;;;;41.35;14.77;;;;;;;-0.70;67.23;99414.09;4308828;33;20506;-87
2022/12/17 18:03:58;;;;;;;41.45;16.10;;;;;;;-0.31;66.26;99417.56;4321174;33;20511;-85
2022/12/17 18:06:23;;;;;;;44.63;16.55;;;;;;;-0.21;66.01;99429.66;4336140;33;20100;-85
2022/12/17 18:08:49;;;;;;;41.80;14.93;;;;;;;-0.44;66.73;99435.69;4310504;33;20107;-84
2022/12/17 18:11:16;;;;;;;40.85;16.42;;;;;;;-0.11;65.80;99417.56;4335984;33;20119;-85
2022/12/17 18:13:55;;;;;;;44.10;15.57;;;;;;;0.29;64.70;99428.72;4329858;33;20087;-87
2022/12/17 18:16:23;;;;;;;;;;;;;;;0.30;64.45;99430.41;4334277;33;20117;-85
2022/12/17 18:18:49;;;;;;;45.10;16.77;;;;;;;-0.37;66.56;99438.28;4338252;33;19990;-84
2022/12/17 18:21:17;;;;;;;41.00;15.07;;;;;;;-0.58;67.22;99436.53;4335427;33;20091;-86
2022/12/17 18:23:43;;;;;;;43.45;15.73;;;;;;;-0.63;67.44;99452.94;4333429;33;20111;-84
2022/12/17 18:26:13;;;;;;;45.33;16.90;;;;;;;-0.47;67.12;99451.22;4331518;33;20137;-83
2022/12/17 18:28:39;;;;;;;43.70;15.23;;;;;;;-0.57;67.69;99454.66;4332002;33;20532;-85
2022/12/17 18:31:07;;;;;;;42.72;15.73;;;;;;;-0.60;67.43;99445.19;4335916;33;20122;-85
2022/12/17 18:33:33;;;;;;;41.83;15.43;;;;;;;-0.75;67.93;99449.44;4332706;33;20166;-85
2022/12/17 18:35:58;;;;;;;42.42;14.23;;;;;;;-0.82;68.18;99453.75;4333139;33;20523;-84
2022/12/17 18:38:23;;;;;;;42.95;14.55;;;;;;;-0.90;68.15;99445.13;4333265;33;20142;-84
2022/12/17 18:40:49;;;;;;;43.42;15.70;;;;;;;-0.80;67.79;99462.38;4320326;33;20449;-84
2022/12/17 18:43:23;;;;;;;46.72;18.02;;;;;;;-0.84;67.78;99460.66;4332294;33;20122;-84
2022/12/17 18:45:52;;;;;;;44.78;15.88;;;;;;;-0.71;67.35;99472.75;4334305;33;20079;-84
2022/12/17 18:48:18;;;;;;;46.37;16.33;;;;;;;-0.47;66.55;99469.31;4333036;33;20121;-85
2022/12/17 18:50:44;;;;;;;45.72;17.17;;;;;;;-1.15;68.78;99483.84;4333658;33;20485;-83
2022/12/17 18:53:09;;;;;;;41.65;15.68;;;;;;;-1.08;68.54;99484.72;4331551;33;20087;-85
2022/12/17 18:55:39;;;;;;;42.35;14.95;;;;;;;-1.02;67.93;99488.19;4332629;33;20123;-84
2022/12/17 18:58:07;;;;;;;44.88;14.57;;;;;;;-1.04;68.22;99500.25;4318726;33;20182;-82
2022/12/17 19:00:33;;;;;;;49.90;16.27;;;;;;;-1.19;68.96;99502.78;4333883;33;20152;-83
2022/12/17 19:02:59;;;;;;;42.53;15.35;;;;;;;-1.05;67.69;99490.75;4329060;33;20149;-84
2022/12/17 19:05:24;;;;;;;45.63;16.80;;;;;;;-0.91;67.28;99501.12;4332642;33;20127;-84
2022/12/17 19:07:49;;;;;;;44.50;15.23;;;;;;;-0.97;67.59;99526.13;4312473;33;20398;-84
2022/12/17 19:10:15;;;;;;;40.45;15.52;;;;;;;-0.99;67.85;99518.38;4326681;33;20123;-84
2022/12/17 19:12:40;;;;;;;37.95;14.82;;;;;;;-0.82;67.28;99521.87;4326470;33;20125;-84
2022/12/17 19:15:06;;;;;;;47.20;15.23;;;;;;;-1.01;67.67;99538.19;4320768;33;20166;-84
2022/12/17 19:17:31;;;;;;;43.97;13.90;;;;;;;-0.61;66.33;99533.16;4308427;33;20560;-84
2022/12/17 19:19:57;;;;;;;50.03;15.82;;;;;;;-1.14;67.45;99539.88;4333840;33;20108;-84
2022/12/17 19:22:22;;;;;;;42.55;14.85;;;;;;;-1.16;67.71;99538.97;4330696;33;20124;-85
2022/12/17 19:24:48;;;;;;;39.25;13.23;;;;;;;-0.59;66.20;99534.03;4331815;33;20388;-83
2022/12/17 19:27:13;;;;;;;44.63;15.80;;;;;;;-1.00;67.35;99548.53;4330857;33;20126;-84
2022/12/17 19:29:38;;;;;;;42.10;15.10;;;;;;;-0.90;66.99;99548.59;4311053;33;20144;-84
2022/12/17 19:32:04;;;;;;;38.42;13.77;;;;;;;-0.98;67.06;99556.31;4327280;33;20207;-85
2022/12/17 19:34:30;;;;;;;41.47;14.50;;;;;;;-1.02;67.57;99554.56;4333633;33;20095;-83
2022/12/17 19:36:56;;;;;;;40.70;14.98;;;;;;;-0.84;66.71;99546.03;4332631;33;20099;-83
2022/12/17 19:39:21;;;;;;;43.10;14.25;;;;;;;-0.88;66.90;99562.38;4333619;33;20492;-84
2022/12/17 19:41:50;;;;;;;36.75;13.50;;;;;;;-0.72;66.27;99565.87;4319676;33;20133;-84
2022/12/17 19:44:15;;;;;;;41.80;14.43;;;;;;;-0.52;65.75;99566.81;4332305;33;20099;-85
2022/12/17 19:46:41;;;;;;;43.80;15.27;;;;;;;-0.47;65.67;99572.84;4333996;33;20100;-85
2022/12/17 19:49:09;;;;;;;39.03;14.68;;;;;;;-0.68;65.69;99581.41;4319840;33;20428;-87
2022/12/17 19:51:35;;;;;;;39.75;14.38;;;;;;;-0.72;65.84;99586.59;4319108;33;20121;-87
2022/12/17 19:54:00;;;;;;;39.70;14.07;;;;;;;-0.94;66.71;99583.91;4333551;33;20091;-86
2022/12/17 19:56:30;;;;;;;41.22;14.40;;;;;;;-0.62;65.76;99597.00;4333795;33;20146;-85
2022/12/17 19:59:01;;;;;;;38.65;13.45;;;;;;;-0.53;65.20;99600.47;4317644;33;20099;-85
2022/12/17 20:01:31;;;;;;;49.10;16.55;;;;;;;-0.87;66.49;99597.72;4332966;33;20084;-85
2022/12/17 20:03:57;;;;;;;44.35;15.00;;;;;;;-0.65;66.01;99604.72;4329615;33;20076;-85
2022/12/17 20:06:28;;;;;;;43.03;14.70;;;;;;;-0.60;65.49;99596.97;4332083;33;20161;-82
2022/12/17 20:08:54;;;;;;;46.60;16.75;;;;;;;-0.41;65.11;99601.38;4322878;33;20785;-86
2022/12/17 20:11:32;;;;;;;46.72;15.85;;;;;;;-1.05;66.67;99609.72;4331943;33;20131;-86
2022/12/17 20:14:20;;;;;;;49.78;16.30;;;;;;;-0.88;66.48;99596.00;4333047;33;20113;-86
2022/12/17 20:16:54;;;;;;;47.58;17.50;;;;;;;-1.06;67.06;99625.25;4331630;33;20104;-87
2022/12/17 20:19:22;;;;;;;46.67;15.35;;;;;;;-1.15;67.50;99626.03;4318362;33;20141;-85
2022/12/17 20:21:48;;;;;;;45.65;17.25;;;;;;;-0.89;66.16;99630.47;4320172;33;20118;-85
2022/12/17 20:24:14;;;;;;;49.38;17.08;;;;;;;-1.09;67.01;99640.72;4317510;33;20092;-87
2022/12/17 20:26:40;;;;;;;48.08;15.90;;;;;;;-0.74;65.68;99638.31;4318525;33;20119;-86
2022/12/17 20:29:06;;;;;;;40.25;15.18;;;;;;;-0.57;64.94;99640.13;4318417;33;20103;-85
2022/12/17 20:31:32;;;;;;;46.30;16.27;;;;;;;-0.68;65.11;99648.69;4331677;33;20104;-86
2022/12/17 20:34:04;;;;;;;46.92;16.08;;;;;;;-0.70;65.30;99650.41;4319274;33;20084;-87
2022/12/17 20:36:30;;;;;;;44.53;15.40;;;;;;;-0.52;64.83;99660.00;4319726;33;20141;-84
2022/12/17 20:38:55;;;;;;;47.20;16.33;;;;;;;-0.92;65.65;99671.88;4332848;33;20099;-84
2022/12/17 20:41:23;;;;;;;48.40;15.90;;;;;;;-0.38;64.54;99667.81;4333177;33;20125;-89
2022/12/17 20:43:49;;;;;;;;;;;;;;;-0.50;64.96;99678.09;4320097;33;20096;-86
2022/12/17 20:46:15;;;;;;;42.33;14.57;;;;;;;-0.73;65.04;99685.78;4343890;33;20039;-86
2022/12/17 20:48:42;;;;;;;47.78;16.20;;;;;;;-0.90;65.66;99689.13;4331320;33;20126;-87
2022/12/17 20:51:25;;;;;;;40.72;15.10;;;;;;;-0.44;64.71;99694.53;4327986;33;20444;-87
2022/12/17 20:53:52;;;;;;;47.65;15.68;;;;;;;-0.52;64.64;99697.94;4330765;33;20087;-86
2022/12/17 20:56:23;;;;;;;38.78;14.60;;;;;;;-0.52;64.60;99691.06;4332271;33;20100;-92
2022/12/17 20:59:01;;;;;;;46.13;16.35;;;;;;;-0.53;64.73;99693.63;4318649;33;20166;-88
2022/12/17 21:01:28;;;;;;;41.53;15.13;;;;;;;-0.50;64.35;99694.53;4318176;33;20154;-87
2022/12/17 21:03:54;;;;;;;42.13;14.50;;;;;;;-0.56;64.57;99702.25;4331192;33;20110;-88
2022/12/17 21:06:34;;;;;;;44.15;15.73;;;;;;;-0.93;65.14;99696.00;4332616;33;20484;-87
2022/12/17 21:09:00;;;;;;;46.58;16.12;;;;;;;-0.68;65.04;99710.78;4327782;33;169779;-87
2022/12/17 21:11:27;;;;;;;41.03;15.65;;;;;;;-0.76;65.27;99712.47;4329477;33;20155;-88
2022/12/17 21:13:53;;;;;;;43.77;15.23;;;;;;;-0.43;64.21;99716.09;4333249;33;20106;-87
2022/12/17 21:16:25;;;;;;;48.70;16.00;;;;;;;-0.55;64.48;99721.22;4331461;33;20981;-87
2022/12/17 21:18:54;;;;;;;45.95;15.15;;;;;;;-0.26;63.71;99731.72;4333140;33;20122;-88
2022/12/17 21:21:23;;;;;;;43.55;15.02;;;;;;;-0.35;64.09;99737.72;4318695;33;20783;-88
2022/12/17 21:23:49;;;;;;;44.08;16.62;;;;;;;-0.49;64.13;99749.72;4331709;33;20097;-85
2022/12/17 21:26:18;;;;;;;46.35;14.35;;;;;;;-0.56;64.38;99747.94;4332249;33;20107;-85
2022/12/17 21:28:45;;;;;;;36.90;12.73;;;;;;;-0.08;62.90;99743.88;4318756;33;20176;-85
2022/12/17 21:31:32;;;;;;;42.97;15.17;;;;;;;-0.37;63.22;99752.38;4332445;33;20881;-85
2022/12/17 21:33:59;;;;;;;38.63;14.38;;;;;;;-0.59;64.14;99746.22;4318929;33;20080;-84
2022/12/17 21:36:26;;;;;;;42.45;15.88;;;;;;;0.05;62.35;99758.59;4317467;33;20175;-86
2022/12/17 21:38:52;;;;;;;43.22;16.15;;;;;;;-0.40;63.40;99768.75;4318662;33;20618;-85
2022/12/17 21:41:20;;;;;;;43.67;14.57;;;;;;;-0.86;65.04;99773.63;4319556;33;20095;-85
2022/12/17 21:43:45;;;;;;;40.47;13.98;;;;;;;-0.66;64.78;99770.31;4331303;33;20079;-85
2022/12/17 21:46:11;;;;;;;40.90;15.38;;;;;;;-0.38;63.71;99775.69;4331340;33;20409;-85
2022/12/17 21:48:39;;;;;;;37.60;14.18;;;;;;;-0.33;63.53;99779.16;4330563;33;20445;-84
2022/12/17 21:51:05;;;;;;;39.85;15.20;;;;;;;-0.27;63.36;99772.28;4317835;33;20091;-83
2022/12/17 21:53:31;;;;;;;39.60;14.48;;;;;;;0.19;61.97;99769.00;4319336;33;20079;-85
2022/12/17 21:56:17;;;;;;;40.35;14.80;;;;;;;0.39;60.80;99769.09;4317266;33;20138;-84
2022/12/17 21:58:43;;;;;;;40.45;14.43;;;;;;;-0.02;61.70;99777.56;4316600;33;20134;-85
2022/12/17 22:01:23;;;;;;;42.42;15.57;;;;;;;0.31;61.10;99776.84;4333039;33;20437;-86
2022/12/17 22:03:50;;;;;;;41.10;14.68;;;;;;;0.19;61.37;99785.44;4330450;33;20071;-84
2022/12/17 22:06:17;;;;;;;40.70;14.75;;;;;;;-0.10;62.35;99789.63;4318503;33;20159;-87
2022/12/17 22:08:44;;;;;;;39.70;14.93;;;;;;;-0.89;64.06;99791.75;4321595;33;20130;-86
2022/12/17 22:11:17;;;;;;;38.63;14.90;;;;;;;-0.27;62.97;99795.59;4318707;33;20106;-84
2022/12/17 22:14:01;;;;;;;42.22;15.07;;;;;;;-0.17;62.73;99795.63;4318291;33;20142;-86
2022/12/17 22:16:38;;;;;;;37.42;14.60;;;;;;;-0.25;63.01;99798.16;4320027;33;20445;-82
2022/12/17 22:19:15;;;;;;;42.88;14.45;;;;;;;-0.78;63.79;99809.91;4331500;33;20100;-86
2022/12/17 22:21:42;;;;;;;40.05;13.90;;;;;;;-0.85;64.74;99815.88;4320303;33;20117;-87
2022/12/17 22:24:12;;;;;;;40.17;15.43;;;;;;;-0.22;62.55;99816.31;4330583;33;20099;-86
2022/12/17 22:26:38;;;;;;;37.58;14.77;;;;;;;0.01;61.94;99823.38;4318186;33;20185;-86
2022/12/17 22:29:03;;;;;;;38.15;14.32;;;;;;;-0.02;62.05;99819.00;4317182;33;20160;-86
2022/12/17 22:34:13;;;;;;;42.28;14.32;;;;;;;-0.25;62.74;99824.06;4330641;33;20155;-84
2022/12/17 22:36:39;;;;;;;42.45;14.45;;;;;;;-0.25;62.93;99827.53;4319160;33;20096;-87
2022/12/17 22:39:13;;;;;;;41.50;16.58;;;;;;;-0.34;62.70;99829.22;4306128;33;20123;-89
2022/12/17 22:44:24;;;;;;;41.67;16.42;;;;;;;-0.80;63.85;99833.19;4307886;33;20138;-85
2022/12/17 22:46:49;;;;;;;45.05;16.48;;;;;;;-0.61;63.83;99848.87;4319411;33;20100;-85
2022/12/17 22:49:15;;;;;;;39.45;13.93;;;;;;;-0.96;64.80;99846.84;4319429;33;20100;-83
2022/12/17 22:51:41;;;;;;;41.35;14.63;;;;;;;-0.43;63.46;99851.56;4331291;33;20523;-83
2022/12/17 22:54:07;;;;;;;41.47;14.98;;;;;;;-0.45;63.56;99847.25;4335779;33;20084;-84
2022/12/17 22:56:33;;;;;;;44.65;16.10;;;;;;;-0.92;65.11;99855.50;4321978;33;20163;-83
2022/12/17 22:58:59;;;;;;;46.67;15.80;;;;;;;-0.38;63.35;99855.94;4322405;33;20225;-84
2022/12/17 23:01:24;;;;;;;46.95;16.05;;;;;;;-1.26;65.95;99857.75;4335782;33;20111;-83
2022/12/17 23:03:57;;;;;;;41.72;14.52;;;;;;;-1.17;66.03;99869.94;4322308;33;20083;-82
2022/12/17 23:06:23;;;;;;;40.65;14.87;;;;;;;-0.28;63.39;99865.50;4322427;33;20170;-80
2022/12/17 23:08:49;;;;;;;44.80;15.50;;;;;;;0.19;61.74;99865.78;4335696;33;20092;-82
2022/12/17 23:11:22;;;;;;;38.05;15.00;;;;;;;-0.19;62.47;99862.97;4335583;33;20110;-83
2022/12/17 23:13:48;;;;;;;46.28;16.80;;;;;;;-0.37;62.79;99881.81;4322609;33;20079;-82
2022/12/17 23:16:14;;;;;;;43.33;16.05;;;;;;;0.03;61.80;99882.09;4335658;33;20107;-87
2022/12/17 23:18:40;;;;;;;49.17;16.62;;;;;;;-0.01;61.87;99888.09;4335698;33;20447;-81
2022/12/17 23:21:11;;;;;;;46.08;17.00;;;;;;;-0.05;61.75;99884.63;4335512;33;20481;-83
2022/12/17 23:23:36;;;;;;;39.08;14.32;;;;;;;0.29;61.01;99894.31;4335648;33;20117;-84
2022/12/17 23:26:10;;;;;;;42.97;15.00;;;;;;;0.21;nan;99889.06;4335460;33;20092;-83
2022/12/17 23:28:39;;;;;;;41.53;14.90;;;;;;;0.18;60.70;99900.31;4322268;33;20126;-83
2022/12/17 23:31:13;;;;;;;43.08;15.85;;;;;;;0.30;60.61;99902.09;4322105;33;20076;-83
2022/12/17 23:33:38;;;;;;;44.75;15.40;;;;;;;0.13;60.07;99904.59;4322041;33;20471;-84
2022/12/17 23:36:16;;;;;;;42.47;15.55;;;;;;;-0.25;61.68;99910.41;4321846;33;20112;-83
2022/12/17 23:38:42;;;;;;;39.50;14.02;;;;;;;0.02;60.96;99914.03;4333444;33;20130;-84
2022/12/17 23:41:10;;;;;;;40.42;14.65;;;;;;;0.25;60.58;99928.84;4335508;33;20440;-84
2022/12/17 23:43:36;;;;;;;44.83;15.65;;;;;;;-0.15;61.19;99915.66;4335494;33;20609;-84
2022/12/17 23:46:02;;;;;;;38.78;14.60;;;;;;;-0.35;61.85;99921.53;4322112;33;20404;-84
2022/12/17 23:48:29;;;;;;;43.72;15.95;;;;;;;0.01;60.97;99932.16;4335452;33;20092;-83
2022/12/17 23:50:55;;;;;;;43.75;15.48;;;;;;;-0.01;60.83;99939.91;4322122;33;20169;-84
2022/12/17 23:53:20;;;;;;;42.65;14.60;;;;;;;0.32;59.93;99938.38;4321815;33;20087;-84
2022/12/17 23:55:46;;;;;;;38.55;14.75;;;;;;;0.28;60.42;99941.81;4335340;33;20092;-84
2022/12/17 23:58:11;;;;;;;43.55;15.40;;;;;;;0.60;59.36;99942.00;4335167;33;20425;-83
